Terminal Aerodrome Forecast
Issued by NWS

Home | Current Version | Previous Version | Text Only | Print | Product List | Glossary On
Versions: 1 2 3 4 5 6 7 8 9 10 11 12 13 14 15 16 17 18 19 20 21 22 23 24 25 26 27 28 29 30 31 32 33 34 35 36 37 38 39 40 41 42 43 44 45 46 47 48 49 50
311
FTAK31 PAJK 171725
TAFASI
TAF
PASI 171725Z 1718/1818 VRB04KT 6SM -RA SCT007 OVC060
      TEMPO 1718/1719 BKN007
     FM172100 28009KT P6SM VCSH SCT010 BKN020 OVC060
     FM180600 VRB04KT 4SM RA BR BKN007 OVC050=

USA.gov is the U.S. government's official web portal to all federal, state and local government web resources and services.